sensor_id;sensor_type;location;lat;lon;timestamp;temperature;humidity
58993;DHT22;44782;0.000;0.000;2023-04-24T00:01:45;17.40;54.10
58993;DHT22;44782;0.000;0.000;2023-04-24T00:04:01;17.40;54.10
58993;DHT22;44782;0.000;0.000;2023-04-24T00:06:17;17.40;54.10
58993;DHT22;44782;0.000;0.000;2023-04-24T00:08:32;17.40;54.10
58993;DHT22;44782;0.000;0.000;2023-04-24T00:10:48;17.40;54.70
58993;DHT22;44782;0.000;0.000;2023-04-24T00:13:04;17.40;54.00
58993;DHT22;44782;0.000;0.000;2023-04-24T00:15:19;17.40;54.00
58993;DHT22;44782;0.000;0.000;2023-04-24T00:17:35;17.40;54.00
58993;DHT22;44782;0.000;0.000;2023-04-24T00:19:51;17.40;54.00
58993;DHT22;44782;0.000;0.000;2023-04-24T00:22:07;17.40;54.00
58993;DHT22;44782;0.000;0.000;2023-04-24T00:24:23;17.40;54.10
58993;DHT22;44782;0.000;0.000;2023-04-24T00:26:38;17.40;54.00
58993;DHT22;44782;0.000;0.000;2023-04-24T00:28:54;17.40;54.00
58993;DHT22;44782;0.000;0.000;2023-04-24T00:31:10;17.40;54.00
58993;DHT22;44782;0.000;0.000;2023-04-24T00:33:26;17.40;54.10
58993;DHT22;44782;0.000;0.000;2023-04-24T00:35:41;17.40;54.00
58993;DHT22;44782;0.000;0.000;2023-04-24T00:37:57;17.30;54.00
58993;DHT22;44782;0.000;0.000;2023-04-24T00:40:13;17.30;54.00
58993;DHT22;44782;0.000;0.000;2023-04-24T00:42:29;17.30;54.00
58993;DHT22;44782;0.000;0.000;2023-04-24T00:44:45;17.30;53.90
58993;DHT22;44782;0.000;0.000;2023-04-24T00:47:01;17.30;53.90
58993;DHT22;44782;0.000;0.000;2023-04-24T00:49:21;17.30;54.00
58993;DHT22;44782;0.000;0.000;2023-04-24T00:51:37;17.30;54.00
58993;DHT22;44782;0.000;0.000;2023-04-24T00:53:53;17.30;54.00
58993;DHT22;44782;0.000;0.000;2023-04-24T00:56:09;17.30;54.00
58993;DHT22;44782;0.000;0.000;2023-04-24T00:58:26;17.30;54.00
58993;DHT22;44782;0.000;0.000;2023-04-24T01:00:42;17.30;54.00
58993;DHT22;44782;0.000;0.000;2023-04-24T01:03:01;17.30;54.00
58993;DHT22;44782;0.000;0.000;2023-04-24T01:05:19;17.30;54.00
58993;DHT22;44782;0.000;0.000;2023-04-24T01:07:36;17.30;54.00
58993;DHT22;44782;0.000;0.000;2023-04-24T01:09:52;17.30;54.00
58993;DHT22;44782;0.000;0.000;2023-04-24T01:12:08;17.30;54.00
58993;DHT22;44782;0.000;0.000;2023-04-24T01:14:24;17.20;53.90
58993;DHT22;44782;0.000;0.000;2023-04-24T01:16:40;17.20;53.90
58993;DHT22;44782;0.000;0.000;2023-04-24T01:18:57;17.20;53.90
58993;DHT22;44782;0.000;0.000;2023-04-24T01:21:14;17.20;53.90
58993;DHT22;44782;0.000;0.000;2023-04-24T01:23:31;17.20;53.90
58993;DHT22;44782;0.000;0.000;2023-04-24T01:25:48;17.20;53.90
58993;DHT22;44782;0.000;0.000;2023-04-24T01:28:04;17.20;53.90
58993;DHT22;44782;0.000;0.000;2023-04-24T01:30:20;17.20;53.90
58993;DHT22;44782;0.000;0.000;2023-04-24T01:32:37;17.20;53.90
58993;DHT22;44782;0.000;0.000;2023-04-24T01:34:53;17.20;54.00
58993;DHT22;44782;0.000;0.000;2023-04-24T01:37:10;17.20;53.90
58993;DHT22;44782;0.000;0.000;2023-04-24T01:39:26;17.20;53.90
58993;DHT22;44782;0.000;0.000;2023-04-24T01:41:43;17.20;53.90
58993;DHT22;44782;0.000;0.000;2023-04-24T01:43:59;17.20;54.00
58993;DHT22;44782;0.000;0.000;2023-04-24T01:46:15;17.20;53.90
58993;DHT22;44782;0.000;0.000;2023-04-24T01:48:31;17.20;53.90
58993;DHT22;44782;0.000;0.000;2023-04-24T01:50:47;17.20;53.90
58993;DHT22;44782;0.000;0.000;2023-04-24T01:53:03;17.20;53.90
58993;DHT22;44782;0.000;0.000;2023-04-24T01:55:18;17.20;54.00
58993;DHT22;44782;0.000;0.000;2023-04-24T01:57:35;17.20;53.90
58993;DHT22;44782;0.000;0.000;2023-04-24T01:59:51;17.10;53.90
58993;DHT22;44782;0.000;0.000;2023-04-24T02:02:07;17.10;53.90
58993;DHT22;44782;0.000;0.000;2023-04-24T02:04:23;17.10;53.90
58993;DHT22;44782;0.000;0.000;2023-04-24T02:06:38;17.10;53.90
58993;DHT22;44782;0.000;0.000;2023-04-24T02:08:54;17.10;53.90
58993;DHT22;44782;0.000;0.000;2023-04-24T02:11:10;17.10;53.90
58993;DHT22;44782;0.000;0.000;2023-04-24T02:13:26;17.10;53.90
58993;DHT22;44782;0.000;0.000;2023-04-24T02:15:41;17.10;53.90
58993;DHT22;44782;0.000;0.000;2023-04-24T02:17:57;17.10;53.90
58993;DHT22;44782;0.000;0.000;2023-04-24T02:20:12;17.10;53.90
58993;DHT22;44782;0.000;0.000;2023-04-24T02:22:28;17.10;53.90
58993;DHT22;44782;0.000;0.000;2023-04-24T02:24:44;17.10;53.90
58993;DHT22;44782;0.000;0.000;2023-04-24T02:27:00;17.10;53.90
58993;DHT22;44782;0.000;0.000;2023-04-24T02:29:17;17.10;53.90
58993;DHT22;44782;0.000;0.000;2023-04-24T02:31:33;17.10;53.90
58993;DHT22;44782;0.000;0.000;2023-04-24T02:33:49;17.00;53.90
58993;DHT22;44782;0.000;0.000;2023-04-24T02:36:05;17.00;53.80
58993;DHT22;44782;0.000;0.000;2023-04-24T02:38:20;17.00;53.90
58993;DHT22;44782;0.000;0.000;2023-04-24T02:40:36;17.00;53.80
58993;DHT22;44782;0.000;0.000;2023-04-24T02:42:52;17.00;53.90
58993;DHT22;44782;0.000;0.000;2023-04-24T02:45:07;17.00;53.80
58993;DHT22;44782;0.000;0.000;2023-04-24T02:47:23;17.00;53.90
58993;DHT22;44782;0.000;0.000;2023-04-24T02:49:39;17.00;53.80
58993;DHT22;44782;0.000;0.000;2023-04-24T02:51:54;17.00;53.90
58993;DHT22;44782;0.000;0.000;2023-04-24T02:54:10;17.00;53.80
58993;DHT22;44782;0.000;0.000;2023-04-24T02:56:26;17.00;53.80
58993;DHT22;44782;0.000;0.000;2023-04-24T02:58:41;17.00;53.80
58993;DHT22;44782;0.000;0.000;2023-04-24T03:00:57;17.00;53.80
58993;DHT22;44782;0.000;0.000;2023-04-24T03:03:13;17.00;53.90
58993;DHT22;44782;0.000;0.000;2023-04-24T03:05:30;17.00;53.90
58993;DHT22;44782;0.000;0.000;2023-04-24T03:07:46;17.00;53.80
58993;DHT22;44782;0.000;0.000;2023-04-24T03:10:02;17.00;53.90
58993;DHT22;44782;0.000;0.000;2023-04-24T03:12:18;16.90;53.80
58993;DHT22;44782;0.000;0.000;2023-04-24T03:14:34;16.90;53.80
58993;DHT22;44782;0.000;0.000;2023-04-24T03:16:50;16.90;53.80
58993;DHT22;44782;0.000;0.000;2023-04-24T03:19:05;16.90;53.80
58993;DHT22;44782;0.000;0.000;2023-04-24T03:21:22;16.90;53.80
58993;DHT22;44782;0.000;0.000;2023-04-24T03:23:37;16.90;53.80
58993;DHT22;44782;0.000;0.000;2023-04-24T03:25:53;16.90;53.80
58993;DHT22;44782;0.000;0.000;2023-04-24T03:28:10;16.90;53.80
58993;DHT22;44782;0.000;0.000;2023-04-24T03:30:25;16.90;53.80
58993;DHT22;44782;0.000;0.000;2023-04-24T03:32:41;16.90;53.80
58993;DHT22;44782;0.000;0.000;2023-04-24T03:34:57;16.90;53.90
58993;DHT22;44782;0.000;0.000;2023-04-24T03:37:13;16.90;53.80
58993;DHT22;44782;0.000;0.000;2023-04-24T03:39:29;16.90;53.80
58993;DHT22;44782;0.000;0.000;2023-04-24T03:41:44;16.90;53.80
58993;DHT22;44782;0.000;0.000;2023-04-24T03:44:00;16.90;53.80
58993;DHT22;44782;0.000;0.000;2023-04-24T03:46:16;16.90;53.80
58993;DHT22;44782;0.000;0.000;2023-04-24T03:48:32;16.90;53.80
58993;DHT22;44782;0.000;0.000;2023-04-24T03:50:47;16.90;53.80
58993;DHT22;44782;0.000;0.000;2023-04-24T03:53:03;16.90;53.80
58993;DHT22;44782;0.000;0.000;2023-04-24T03:55:19;16.90;53.80
58993;DHT22;44782;0.000;0.000;2023-04-24T03:57:35;16.80;53.80
58993;DHT22;44782;0.000;0.000;2023-04-24T03:59:50;16.80;53.80
58993;DHT22;44782;0.000;0.000;2023-04-24T04:02:06;16.80;53.80
58993;DHT22;44782;0.000;0.000;2023-04-24T04:04:23;16.80;53.80
58993;DHT22;44782;0.000;0.000;2023-04-24T04:06:38;16.80;53.80
58993;DHT22;44782;0.000;0.000;2023-04-24T04:08:54;16.80;53.80
58993;DHT22;44782;0.000;0.000;2023-04-24T04:11:10;16.80;53.70
58993;DHT22;44782;0.000;0.000;2023-04-24T04:13:26;16.80;53.80
58993;DHT22;44782;0.000;0.000;2023-04-24T04:15:41;16.80;53.80
58993;DHT22;44782;0.000;0.000;2023-04-24T04:17:57;16.80;53.80
58993;DHT22;44782;0.000;0.000;2023-04-24T04:20:13;16.80;53.80
58993;DHT22;44782;0.000;0.000;2023-04-24T04:22:29;16.80;53.80
58993;DHT22;44782;0.000;0.000;2023-04-24T04:24:44;16.80;53.80
58993;DHT22;44782;0.000;0.000;2023-04-24T04:27:01;16.80;53.80
58993;DHT22;44782;0.000;0.000;2023-04-24T04:29:17;16.80;53.80
58993;DHT22;44782;0.000;0.000;2023-04-24T04:31:36;16.80;53.80
58993;DHT22;44782;0.000;0.000;2023-04-24T04:33:52;16.80;53.80
58993;DHT22;44782;0.000;0.000;2023-04-24T04:36:07;16.80;53.80
58993;DHT22;44782;0.000;0.000;2023-04-24T04:38:24;16.70;53.80
58993;DHT22;44782;0.000;0.000;2023-04-24T04:40:42;16.70;53.70
58993;DHT22;44782;0.000;0.000;2023-04-24T04:42:58;16.70;53.70
58993;DHT22;44782;0.000;0.000;2023-04-24T04:45:14;16.70;53.70
58993;DHT22;44782;0.000;0.000;2023-04-24T04:47:32;16.70;53.80
58993;DHT22;44782;0.000;0.000;2023-04-24T04:49:48;16.70;53.70
58993;DHT22;44782;0.000;0.000;2023-04-24T04:52:04;16.70;53.70
58993;DHT22;44782;0.000;0.000;2023-04-24T04:54:19;16.70;53.70
58993;DHT22;44782;0.000;0.000;2023-04-24T04:56:35;16.70;53.80
58993;DHT22;44782;0.000;0.000;2023-04-24T04:58:51;16.70;53.80
58993;DHT22;44782;0.000;0.000;2023-04-24T05:01:06;16.70;53.80
58993;DHT22;44782;0.000;0.000;2023-04-24T05:03:22;16.70;53.80
58993;DHT22;44782;0.000;0.000;2023-04-24T05:05:38;16.70;53.80
58993;DHT22;44782;0.000;0.000;2023-04-24T05:07:56;16.70;53.80
58993;DHT22;44782;0.000;0.000;2023-04-24T05:10:12;16.70;53.80
58993;DHT22;44782;0.000;0.000;2023-04-24T05:12:28;16.70;53.80
58993;DHT22;44782;0.000;0.000;2023-04-24T05:14:44;16.70;53.80
58993;DHT22;44782;0.000;0.000;2023-04-24T05:17:00;16.70;53.80
58993;DHT22;44782;0.000;0.000;2023-04-24T05:19:16;16.70;53.80
58993;DHT22;44782;0.000;0.000;2023-04-24T05:21:32;16.70;53.80
58993;DHT22;44782;0.000;0.000;2023-04-24T05:23:47;16.70;53.80
58993;DHT22;44782;0.000;0.000;2023-04-24T05:26:03;16.70;53.80
58993;DHT22;44782;0.000;0.000;2023-04-24T05:28:19;16.70;53.80
58993;DHT22;44782;0.000;0.000;2023-04-24T05:30:36;16.70;53.80
58993;DHT22;44782;0.000;0.000;2023-04-24T05:32:52;16.60;53.80
58993;DHT22;44782;0.000;0.000;2023-04-24T05:35:07;16.70;53.80
58993;DHT22;44782;0.000;0.000;2023-04-24T05:37:23;16.60;53.70
58993;DHT22;44782;0.000;0.000;2023-04-24T05:39:39;16.60;53.80
58993;DHT22;44782;0.000;0.000;2023-04-24T05:41:56;16.60;53.80
58993;DHT22;44782;0.000;0.000;2023-04-24T05:44:13;16.60;53.80
58993;DHT22;44782;0.000;0.000;2023-04-24T05:46:29;16.60;53.80
58993;DHT22;44782;0.000;0.000;2023-04-24T05:48:44;16.60;53.80
58993;DHT22;44782;0.000;0.000;2023-04-24T05:51:01;16.60;53.80
58993;DHT22;44782;0.000;0.000;2023-04-24T05:53:16;16.60;53.80
58993;DHT22;44782;0.000;0.000;2023-04-24T05:55:32;16.60;53.80
58993;DHT22;44782;0.000;0.000;2023-04-24T05:57:48;16.60;53.80
58993;DHT22;44782;0.000;0.000;2023-04-24T06:00:05;16.60;53.80
58993;DHT22;44782;0.000;0.000;2023-04-24T06:02:21;16.60;53.80
58993;DHT22;44782;0.000;0.000;2023-04-24T06:04:37;16.60;53.90
58993;DHT22;44782;0.000;0.000;2023-04-24T06:06:53;16.60;53.90
58993;DHT22;44782;0.000;0.000;2023-04-24T06:09:11;16.60;53.80
58993;DHT22;44782;0.000;0.000;2023-04-24T06:11:27;16.70;53.90
58993;DHT22;44782;0.000;0.000;2023-04-24T06:13:44;16.60;53.80
58993;DHT22;44782;0.000;0.000;2023-04-24T06:15:59;16.60;53.80
58993;DHT22;44782;0.000;0.000;2023-04-24T06:18:15;16.60;53.80
58993;DHT22;44782;0.000;0.000;2023-04-24T06:20:31;16.60;53.80
58993;DHT22;44782;0.000;0.000;2023-04-24T06:22:46;16.60;53.80
58993;DHT22;44782;0.000;0.000;2023-04-24T06:25:02;16.60;53.80
58993;DHT22;44782;0.000;0.000;2023-04-24T06:27:18;16.60;53.80
58993;DHT22;44782;0.000;0.000;2023-04-24T06:29:35;16.60;53.80
58993;DHT22;44782;0.000;0.000;2023-04-24T06:31:51;16.60;53.80
58993;DHT22;44782;0.000;0.000;2023-04-24T06:34:07;16.60;53.90
58993;DHT22;44782;0.000;0.000;2023-04-24T06:36:23;16.60;53.90
58993;DHT22;44782;0.000;0.000;2023-04-24T06:38:38;16.60;53.80
58993;DHT22;44782;0.000;0.000;2023-04-24T06:40:54;16.60;54.00
58993;DHT22;44782;0.000;0.000;2023-04-24T06:43:10;16.60;53.80
58993;DHT22;44782;0.000;0.000;2023-04-24T06:45:26;16.60;53.90
58993;DHT22;44782;0.000;0.000;2023-04-24T06:47:42;16.60;53.80
58993;DHT22;44782;0.000;0.000;2023-04-24T06:50:00;16.60;53.80
58993;DHT22;44782;0.000;0.000;2023-04-24T06:52:16;16.60;53.80
58993;DHT22;44782;0.000;0.000;2023-04-24T06:54:32;16.60;53.90
58993;DHT22;44782;0.000;0.000;2023-04-24T06:56:48;16.60;53.90
58993;DHT22;44782;0.000;0.000;2023-04-24T06:59:05;16.60;53.90
58993;DHT22;44782;0.000;0.000;2023-04-24T07:01:21;16.60;53.90
58993;DHT22;44782;0.000;0.000;2023-04-24T07:03:37;16.60;53.90
58993;DHT22;44782;0.000;0.000;2023-04-24T07:05:54;16.60;53.90
58993;DHT22;44782;0.000;0.000;2023-04-24T07:08:10;16.60;53.90
58993;DHT22;44782;0.000;0.000;2023-04-24T07:10:27;16.50;53.90
58993;DHT22;44782;0.000;0.000;2023-04-24T07:12:44;16.50;53.90
58993;DHT22;44782;0.000;0.000;2023-04-24T07:15:00;16.60;53.90
58993;DHT22;44782;0.000;0.000;2023-04-24T07:17:16;16.50;53.80
58993;DHT22;44782;0.000;0.000;2023-04-24T07:19:35;16.50;53.90
58993;DHT22;44782;0.000;0.000;2023-04-24T07:21:51;16.50;53.80
58993;DHT22;44782;0.000;0.000;2023-04-24T07:24:07;16.60;53.90
58993;DHT22;44782;0.000;0.000;2023-04-24T07:26:29;16.50;53.90
58993;DHT22;44782;0.000;0.000;2023-04-24T07:28:45;16.50;53.80
58993;DHT22;44782;0.000;0.000;2023-04-24T07:31:00;16.50;53.90
58993;DHT22;44782;0.000;0.000;2023-04-24T07:33:16;16.50;53.90
58993;DHT22;44782;0.000;0.000;2023-04-24T07:35:33;16.50;53.90
58993;DHT22;44782;0.000;0.000;2023-04-24T07:37:49;16.50;53.80
58993;DHT22;44782;0.000;0.000;2023-04-24T07:40:05;16.50;53.90
58993;DHT22;44782;0.000;0.000;2023-04-24T07:42:21;16.60;53.90
58993;DHT22;44782;0.000;0.000;2023-04-24T07:44:37;16.50;53.90
58993;DHT22;44782;0.000;0.000;2023-04-24T07:46:53;16.60;53.90
58993;DHT22;44782;0.000;0.000;2023-04-24T07:49:08;16.50;53.90
58993;DHT22;44782;0.000;0.000;2023-04-24T07:51:25;16.60;53.90
58993;DHT22;44782;0.000;0.000;2023-04-24T07:53:43;16.60;53.90
58993;DHT22;44782;0.000;0.000;2023-04-24T07:55:59;16.60;53.90
58993;DHT22;44782;0.000;0.000;2023-04-24T07:58:15;16.50;53.80
58993;DHT22;44782;0.000;0.000;2023-04-24T08:00:30;16.50;53.80
58993;DHT22;44782;0.000;0.000;2023-04-24T08:02:46;16.60;53.90
58993;DHT22;44782;0.000;0.000;2023-04-24T08:05:02;16.60;53.90
58993;DHT22;44782;0.000;0.000;2023-04-24T08:07:18;16.60;53.90
58993;DHT22;44782;0.000;0.000;2023-04-24T08:09:34;16.60;53.90
58993;DHT22;44782;0.000;0.000;2023-04-24T08:11:50;16.50;53.80
58993;DHT22;44782;0.000;0.000;2023-04-24T08:14:05;16.60;53.90
58993;DHT22;44782;0.000;0.000;2023-04-24T08:16:21;16.60;53.90
58993;DHT22;44782;0.000;0.000;2023-04-24T08:18:39;16.60;53.90
58993;DHT22;44782;0.000;0.000;2023-04-24T08:20:55;16.60;53.90
58993;DHT22;44782;0.000;0.000;2023-04-24T08:23:11;16.60;53.90
58993;DHT22;44782;0.000;0.000;2023-04-24T08:25:27;16.60;53.90
58993;DHT22;44782;0.000;0.000;2023-04-24T08:27:42;16.60;53.90
58993;DHT22;44782;0.000;0.000;2023-04-24T08:29:59;16.60;53.90
58993;DHT22;44782;0.000;0.000;2023-04-24T08:32:15;16.60;53.90
58993;DHT22;44782;0.000;0.000;2023-04-24T08:34:31;16.60;53.90
58993;DHT22;44782;0.000;0.000;2023-04-24T08:36:47;16.60;53.90
58993;DHT22;44782;0.000;0.000;2023-04-24T08:39:02;16.50;53.90
58993;DHT22;44782;0.000;0.000;2023-04-24T08:41:18;16.60;53.90
58993;DHT22;44782;0.000;0.000;2023-04-24T08:43:34;16.60;53.90
58993;DHT22;44782;0.000;0.000;2023-04-24T08:45:52;16.60;53.90
58993;DHT22;44782;0.000;0.000;2023-04-24T08:48:09;16.60;53.90
58993;DHT22;44782;0.000;0.000;2023-04-24T08:50:27;16.60;53.90
58993;DHT22;44782;0.000;0.000;2023-04-24T08:52:44;16.60;53.90
58993;DHT22;44782;0.000;0.000;2023-04-24T08:55:03;16.60;53.90
58993;DHT22;44782;0.000;0.000;2023-04-24T08:57:19;16.60;53.80
58993;DHT22;44782;0.000;0.000;2023-04-24T08:59:35;16.60;53.90
58993;DHT22;44782;0.000;0.000;2023-04-24T09:01:51;16.60;53.90
58993;DHT22;44782;0.000;0.000;2023-04-24T09:04:09;16.60;53.90
58993;DHT22;44782;0.000;0.000;2023-04-24T09:06:26;16.60;53.90
58993;DHT22;44782;0.000;0.000;2023-04-24T09:08:42;16.60;53.90
58993;DHT22;44782;0.000;0.000;2023-04-24T09:10:59;16.60;53.90
58993;DHT22;44782;0.000;0.000;2023-04-24T09:13:19;16.60;54.60
58993;DHT22;44782;0.000;0.000;2023-04-24T09:15:39;16.60;53.90
58993;DHT22;44782;0.000;0.000;2023-04-24T09:17:55;16.60;53.90
58993;DHT22;44782;0.000;0.000;2023-04-24T09:20:11;16.60;53.90
58993;DHT22;44782;0.000;0.000;2023-04-24T09:22:30;16.60;54.00
58993;DHT22;44782;0.000;0.000;2023-04-24T09:24:46;16.60;53.90
58993;DHT22;44782;0.000;0.000;2023-04-24T09:27:02;16.60;53.90
58993;DHT22;44782;0.000;0.000;2023-04-24T09:29:18;16.50;53.90
58993;DHT22;44782;0.000;0.000;2023-04-24T09:31:34;16.60;54.00
58993;DHT22;44782;0.000;0.000;2023-04-24T09:34:02;16.60;54.00
58993;DHT22;44782;0.000;0.000;2023-04-24T09:36:32;16.60;53.90
58993;DHT22;44782;0.000;0.000;2023-04-24T09:38:57;16.50;53.90
58993;DHT22;44782;0.000;0.000;2023-04-24T09:41:14;16.60;54.00
58993;DHT22;44782;0.000;0.000;2023-04-24T09:43:31;16.50;53.90
58993;DHT22;44782;0.000;0.000;2023-04-24T09:45:47;16.60;54.00
58993;DHT22;44782;0.000;0.000;2023-04-24T09:48:03;16.60;54.00
58993;DHT22;44782;0.000;0.000;2023-04-24T09:50:19;16.50;54.00
58993;DHT22;44782;0.000;0.000;2023-04-24T09:52:34;16.60;54.00
58993;DHT22;44782;0.000;0.000;2023-04-24T09:54:53;16.50;53.90
58993;DHT22;44782;0.000;0.000;2023-04-24T09:57:10;16.60;54.00
58993;DHT22;44782;0.000;0.000;2023-04-24T09:59:25;16.50;54.00
58993;DHT22;44782;0.000;0.000;2023-04-24T10:01:41;16.50;54.00
58993;DHT22;44782;0.000;0.000;2023-04-24T10:04:01;16.60;54.00
58993;DHT22;44782;0.000;0.000;2023-04-24T10:06:17;16.50;54.00
58993;DHT22;44782;0.000;0.000;2023-04-24T10:08:36;16.60;54.10
58993;DHT22;44782;0.000;0.000;2023-04-24T10:10:52;16.60;54.00
58993;DHT22;44782;0.000;0.000;2023-04-24T10:13:13;16.60;54.00
58993;DHT22;44782;0.000;0.000;2023-04-24T10:15:30;16.60;54.00
58993;DHT22;44782;0.000;0.000;2023-04-24T10:17:49;16.50;54.00
58993;DHT22;44782;0.000;0.000;2023-04-24T10:20:09;16.50;54.00
58993;DHT22;44782;0.000;0.000;2023-04-24T10:22:25;16.50;54.00
58993;DHT22;44782;0.000;0.000;2023-04-24T10:24:43;16.50;54.00
58993;DHT22;44782;0.000;0.000;2023-04-24T10:27:00;16.50;54.00
58993;DHT22;44782;0.000;0.000;2023-04-24T10:29:18;16.50;54.00
58993;DHT22;44782;0.000;0.000;2023-04-24T10:31:34;16.50;54.00
58993;DHT22;44782;0.000;0.000;2023-04-24T10:33:51;16.50;54.00
58993;DHT22;44782;0.000;0.000;2023-04-24T10:36:13;16.50;54.00
58993;DHT22;44782;0.000;0.000;2023-04-24T10:38:30;16.50;54.00
58993;DHT22;44782;0.000;0.000;2023-04-24T10:40:47;16.50;54.00
58993;DHT22;44782;0.000;0.000;2023-04-24T10:43:04;16.50;54.10
58993;DHT22;44782;0.000;0.000;2023-04-24T10:45:26;16.50;54.00
58993;DHT22;44782;0.000;0.000;2023-04-24T10:47:42;16.50;54.00
58993;DHT22;44782;0.000;0.000;2023-04-24T10:49:59;16.50;54.00
58993;DHT22;44782;0.000;0.000;2023-04-24T10:52:15;16.50;54.00
58993;DHT22;44782;0.000;0.000;2023-04-24T10:54:42;16.50;54.00
58993;DHT22;44782;0.000;0.000;2023-04-24T10:59:35;16.60;54.00
58993;DHT22;44782;0.000;0.000;2023-04-24T11:01:54;16.50;54.00
58993;DHT22;44782;0.000;0.000;2023-04-24T11:04:10;16.50;54.00
58993;DHT22;44782;0.000;0.000;2023-04-24T11:08:50;16.60;54.00
58993;DHT22;44782;0.000;0.000;2023-04-24T11:11:15;16.50;54.00
58993;DHT22;44782;0.000;0.000;2023-04-24T11:18:38;16.60;53.90
58993;DHT22;44782;0.000;0.000;2023-04-24T11:20:54;16.50;54.00
58993;DHT22;44782;0.000;0.000;2023-04-24T11:23:12;16.50;54.00
58993;DHT22;44782;0.000;0.000;2023-04-24T11:25:30;16.50;54.00
58993;DHT22;44782;0.000;0.000;2023-04-24T11:27:47;16.50;53.90
58993;DHT22;44782;0.000;0.000;2023-04-24T11:30:04;16.50;54.00
58993;DHT22;44782;0.000;0.000;2023-04-24T11:34:41;16.50;53.90
58993;DHT22;44782;0.000;0.000;2023-04-24T11:36:56;16.50;53.90
58993;DHT22;44782;0.000;0.000;2023-04-24T11:39:13;16.50;54.00
58993;DHT22;44782;0.000;0.000;2023-04-24T11:41:29;16.50;54.00
58993;DHT22;44782;0.000;0.000;2023-04-24T11:43:46;16.50;54.00
58993;DHT22;44782;0.000;0.000;2023-04-24T11:46:04;16.50;54.00
58993;DHT22;44782;0.000;0.000;2023-04-24T11:48:20;16.50;54.00
58993;DHT22;44782;0.000;0.000;2023-04-24T11:50:36;16.50;54.70
58993;DHT22;44782;0.000;0.000;2023-04-24T11:52:52;16.50;54.00
58993;DHT22;44782;0.000;0.000;2023-04-24T11:55:23;16.50;54.00
58993;DHT22;44782;0.000;0.000;2023-04-24T11:57:49;16.50;53.90
58993;DHT22;44782;0.000;0.000;2023-04-24T12:00:06;16.50;54.00
58993;DHT22;44782;0.000;0.000;2023-04-24T12:02:24;16.50;54.00
58993;DHT22;44782;0.000;0.000;2023-04-24T12:04:41;16.50;54.00
58993;DHT22;44782;0.000;0.000;2023-04-24T12:07:03;16.50;54.00
58993;DHT22;44782;0.000;0.000;2023-04-24T12:09:20;16.50;54.00
58993;DHT22;44782;0.000;0.000;2023-04-24T12:11:36;16.50;54.10
58993;DHT22;44782;0.000;0.000;2023-04-24T12:13:51;16.50;54.00
58993;DHT22;44782;0.000;0.000;2023-04-24T12:16:07;16.50;54.10
58993;DHT22;44782;0.000;0.000;2023-04-24T12:18:23;16.50;54.10
58993;DHT22;44782;0.000;0.000;2023-04-24T12:20:40;16.50;54.10
58993;DHT22;44782;0.000;0.000;2023-04-24T12:22:57;16.50;54.10
58993;DHT22;44782;0.000;0.000;2023-04-24T12:25:18;16.50;54.10
58993;DHT22;44782;0.000;0.000;2023-04-24T12:27:34;16.50;54.10
58993;DHT22;44782;0.000;0.000;2023-04-24T12:29:56;16.50;54.10
58993;DHT22;44782;0.000;0.000;2023-04-24T12:32:21;16.50;54.10
58993;DHT22;44782;0.000;0.000;2023-04-24T12:34:37;16.50;54.10
58993;DHT22;44782;0.000;0.000;2023-04-24T12:36:53;16.50;54.20
58993;DHT22;44782;0.000;0.000;2023-04-24T12:39:17;16.50;54.20
58993;DHT22;44782;0.000;0.000;2023-04-24T12:41:34;16.50;54.20
58993;DHT22;44782;0.000;0.000;2023-04-24T12:43:51;16.50;54.20
58993;DHT22;44782;0.000;0.000;2023-04-24T12:46:07;16.50;54.30
58993;DHT22;44782;0.000;0.000;2023-04-24T12:48:23;16.50;54.50
58993;DHT22;44782;0.000;0.000;2023-04-24T12:50:39;16.50;54.20
58993;DHT22;44782;0.000;0.000;2023-04-24T12:52:55;16.50;55.00
58993;DHT22;44782;0.000;0.000;2023-04-24T12:55:11;16.50;54.30
58993;DHT22;44782;0.000;0.000;2023-04-24T12:57:30;16.50;54.30
58993;DHT22;44782;0.000;0.000;2023-04-24T12:59:46;16.50;54.30
58993;DHT22;44782;0.000;0.000;2023-04-24T13:02:02;16.50;54.30
58993;DHT22;44782;0.000;0.000;2023-04-24T13:04:18;16.50;54.40
58993;DHT22;44782;0.000;0.000;2023-04-24T13:06:33;16.50;54.30
58993;DHT22;44782;0.000;0.000;2023-04-24T13:08:49;16.50;54.30
58993;DHT22;44782;0.000;0.000;2023-04-24T13:11:06;16.50;54.40
58993;DHT22;44782;0.000;0.000;2023-04-24T13:13:22;16.50;54.40
58993;DHT22;44782;0.000;0.000;2023-04-24T13:15:38;16.50;54.40
58993;DHT22;44782;0.000;0.000;2023-04-24T13:17:53;16.50;54.40
58993;DHT22;44782;0.000;0.000;2023-04-24T13:20:09;16.50;54.30
58993;DHT22;44782;0.000;0.000;2023-04-24T13:22:25;16.50;54.40
58993;DHT22;44782;0.000;0.000;2023-04-24T13:24:41;16.50;54.30
58993;DHT22;44782;0.000;0.000;2023-04-24T13:26:57;16.60;54.40
58993;DHT22;44782;0.000;0.000;2023-04-24T13:29:13;16.60;54.30
58993;DHT22;44782;0.000;0.000;2023-04-24T13:31:29;16.60;54.40
58993;DHT22;44782;0.000;0.000;2023-04-24T13:33:45;16.60;54.30
58993;DHT22;44782;0.000;0.000;2023-04-24T13:36:00;16.60;54.30
58993;DHT22;44782;0.000;0.000;2023-04-24T13:38:16;16.60;54.30
58993;DHT22;44782;0.000;0.000;2023-04-24T13:40:32;16.60;54.20
58993;DHT22;44782;0.000;0.000;2023-04-24T13:42:48;16.60;54.20
58993;DHT22;44782;0.000;0.000;2023-04-24T13:45:04;16.60;54.20
58993;DHT22;44782;0.000;0.000;2023-04-24T13:47:20;16.60;54.10
58993;DHT22;44782;0.000;0.000;2023-04-24T13:49:36;16.60;54.10
58993;DHT22;44782;0.000;0.000;2023-04-24T13:51:52;16.60;54.10
58993;DHT22;44782;0.000;0.000;2023-04-24T13:54:08;16.70;54.10
58993;DHT22;44782;0.000;0.000;2023-04-24T13:56:24;16.70;54.10
58993;DHT22;44782;0.000;0.000;2023-04-24T13:58:40;16.70;54.10
58993;DHT22;44782;0.000;0.000;2023-04-24T14:00:56;16.70;54.10
58993;DHT22;44782;0.000;0.000;2023-04-24T14:03:11;16.70;54.00
58993;DHT22;44782;0.000;0.000;2023-04-24T14:05:27;16.70;54.00
58993;DHT22;44782;0.000;0.000;2023-04-24T14:07:43;16.70;54.00
58993;DHT22;44782;0.000;0.000;2023-04-24T14:09:58;16.70;54.10
58993;DHT22;44782;0.000;0.000;2023-04-24T14:12:15;16.60;54.00
58993;DHT22;44782;0.000;0.000;2023-04-24T14:14:34;16.60;54.00
58993;DHT22;44782;0.000;0.000;2023-04-24T14:16:50;16.60;54.00
58993;DHT22;44782;0.000;0.000;2023-04-24T14:19:06;16.60;54.00
58993;DHT22;44782;0.000;0.000;2023-04-24T14:21:22;16.70;54.00
58993;DHT22;44782;0.000;0.000;2023-04-24T14:23:37;16.70;54.00
58993;DHT22;44782;0.000;0.000;2023-04-24T14:25:53;16.70;53.90
58993;DHT22;44782;0.000;0.000;2023-04-24T14:28:09;16.70;53.90
58993;DHT22;44782;0.000;0.000;2023-04-24T14:30:25;16.70;53.90
58993;DHT22;44782;0.000;0.000;2023-04-24T14:32:40;16.70;53.90
58993;DHT22;44782;0.000;0.000;2023-04-24T14:34:56;16.70;53.80
58993;DHT22;44782;0.000;0.000;2023-04-24T14:37:12;16.70;53.80
58993;DHT22;44782;0.000;0.000;2023-04-24T14:39:28;16.70;53.80
58993;DHT22;44782;0.000;0.000;2023-04-24T14:41:44;16.70;53.80
58993;DHT22;44782;0.000;0.000;2023-04-24T14:44:00;16.70;53.80
58993;DHT22;44782;0.000;0.000;2023-04-24T14:46:15;16.70;53.70
58993;DHT22;44782;0.000;0.000;2023-04-24T14:48:31;16.70;53.70